Portada
METAR-TAF:

METAR-TAF

Aeroports :

Williamson County Regional Airport

Marion, Illinois, Estats Units d'Amèrica

latitud: 37-45-01N, longitud: 089-00-04W, altitud: 144 m

Observació

L'informe es va fer fa 27 minuts, a les 02:15 UTC
Vent calma
Temperatura 8°C
Humitat 53%
Pressió 1022 hPa
Visibilitat: 16.1 km
Núvols disperses a una alçada de 7000 ft
Cel ennuvolat a una alçada de 8000 ft
Cel cobert a una alçada de 10000 ft

METAR: KMWA 220215Z AUTO 00000KT 10SM SCT070 BKN080 OVC100 08/M01 A3019 RMK AO2 T00801009

Hora: 21:42 (02:42 UTC)


TAF: manca

Observacions i pronòstics meteorològics de més de 4000 aeroports (METAR i TAF).

Les estacions disponibles són els punts grocs i vermells al mapa.

Posi el ratolí al punt desitjat per veure el nom de l'estació.

Feu clic per veure les observacions i els pronòstics meteorològics.

Per canviar el mapa: feu clic els botons verds amb una creu de color negre per apropar; al botó verd amb un guió per allunyar la imatge; o en les fletxes verdes per a mapes adjacents.


METAR-TAF: